sensor_id;sensor_type;location;lat;lon;timestamp;temperature;humidity
7814;DHT22;3952;48.364;16.022;2023-10-13T00:02:11;16.10;99.90
7814;DHT22;3952;48.364;16.022;2023-10-13T00:04:39;16.00;99.90
7814;DHT22;3952;48.364;16.022;2023-10-13T00:07:07;16.00;99.90
7814;DHT22;3952;48.364;16.022;2023-10-13T00:09:35;16.00;99.90
7814;DHT22;3952;48.364;16.022;2023-10-13T00:12:04;16.00;99.90
7814;DHT22;3952;48.364;16.022;2023-10-13T00:14:36;16.00;99.90
7814;DHT22;3952;48.364;16.022;2023-10-13T00:17:06;16.00;99.90
7814;DHT22;3952;48.364;16.022;2023-10-13T00:19:41;16.00;99.90
7814;DHT22;3952;48.364;16.022;2023-10-13T00:22:14;15.90;99.90
7814;DHT22;3952;48.364;16.022;2023-10-13T00:24:43;15.90;99.90
7814;DHT22;3952;48.364;16.022;2023-10-13T00:27:13;15.90;99.90
7814;DHT22;3952;48.364;16.022;2023-10-13T00:29:57;16.00;99.90
7814;DHT22;3952;48.364;16.022;2023-10-13T00:32:49;15.90;99.90
7814;DHT22;3952;48.364;16.022;2023-10-13T00:35:20;15.90;99.90
7814;DHT22;3952;48.364;16.022;2023-10-13T00:37:55;15.90;99.90
7814;DHT22;3952;48.364;16.022;2023-10-13T00:40:23;15.90;99.90
7814;DHT22;3952;48.364;16.022;2023-10-13T00:43:10;16.00;99.90
7814;DHT22;3952;48.364;16.022;2023-10-13T00:46:01;15.90;99.90
7814;DHT22;3952;48.364;16.022;2023-10-13T00:48:36;15.90;99.90
7814;DHT22;3952;48.364;16.022;2023-10-13T00:51:10;16.00;99.90
7814;DHT22;3952;48.364;16.022;2023-10-13T00:53:44;16.00;99.90
7814;DHT22;3952;48.364;16.022;2023-10-13T00:56:14;16.00;99.90
7814;DHT22;3952;48.364;16.022;2023-10-13T00:58:48;15.90;99.90
7814;DHT22;3952;48.364;16.022;2023-10-13T01:01:19;16.00;99.90
7814;DHT22;3952;48.364;16.022;2023-10-13T01:03:48;16.00;99.90
7814;DHT22;3952;48.364;16.022;2023-10-13T01:06:17;16.00;99.90
7814;DHT22;3952;48.364;16.022;2023-10-13T01:08:47;16.00;99.90
7814;DHT22;3952;48.364;16.022;2023-10-13T01:11:18;16.10;99.90
7814;DHT22;3952;48.364;16.022;2023-10-13T01:13:44;16.10;99.90
7814;DHT22;3952;48.364;16.022;2023-10-13T01:16:16;16.10;99.90
7814;DHT22;3952;48.364;16.022;2023-10-13T01:18:44;15.10;99.90
7814;DHT22;3952;48.364;16.022;2023-10-13T01:21:15;16.10;99.90
7814;DHT22;3952;48.364;16.022;2023-10-13T01:23:47;16.10;99.90
7814;DHT22;3952;48.364;16.022;2023-10-13T01:26:16;16.10;99.90
7814;DHT22;3952;48.364;16.022;2023-10-13T01:28:50;16.00;99.90
7814;DHT22;3952;48.364;16.022;2023-10-13T01:31:17;16.00;99.90
7814;DHT22;3952;48.364;16.022;2023-10-13T01:33:56;16.00;99.90
7814;DHT22;3952;48.364;16.022;2023-10-13T01:36:26;16.00;99.90
7814;DHT22;3952;48.364;16.022;2023-10-13T01:38:54;16.00;99.90
7814;DHT22;3952;48.364;16.022;2023-10-13T01:41:21;16.00;99.90
7814;DHT22;3952;48.364;16.022;2023-10-13T01:43:49;15.90;99.90
7814;DHT22;3952;48.364;16.022;2023-10-13T01:46:16;15.90;99.90
7814;DHT22;3952;48.364;16.022;2023-10-13T01:48:47;15.00;99.90
7814;DHT22;3952;48.364;16.022;2023-10-13T01:51:14;15.80;99.90
7814;DHT22;3952;48.364;16.022;2023-10-13T01:53:41;15.90;99.90
7814;DHT22;3952;48.364;16.022;2023-10-13T01:56:10;15.90;99.90
7814;DHT22;3952;48.364;16.022;2023-10-13T01:58:38;15.90;99.90
7814;DHT22;3952;48.364;16.022;2023-10-13T02:01:08;16.80;99.90
7814;DHT22;3952;48.364;16.022;2023-10-13T02:03:36;15.80;99.90
7814;DHT22;3952;48.364;16.022;2023-10-13T02:06:07;15.80;99.90
7814;DHT22;3952;48.364;16.022;2023-10-13T02:08:36;15.90;99.90
7814;DHT22;3952;48.364;16.022;2023-10-13T02:11:09;15.90;99.90
7814;DHT22;3952;48.364;16.022;2023-10-13T02:13:37;15.90;99.90
7814;DHT22;3952;48.364;16.022;2023-10-13T02:16:08;15.90;99.90
7814;DHT22;3952;48.364;16.022;2023-10-13T02:18:37;15.80;99.90
7814;DHT22;3952;48.364;16.022;2023-10-13T02:21:08;15.80;99.90
7814;DHT22;3952;48.364;16.022;2023-10-13T02:23:39;15.80;99.90
7814;DHT22;3952;48.364;16.022;2023-10-13T02:26:12;15.80;99.90
7814;DHT22;3952;48.364;16.022;2023-10-13T02:28:41;15.80;99.90
7814;DHT22;3952;48.364;16.022;2023-10-13T02:31:07;15.80;99.90
7814;DHT22;3952;48.364;16.022;2023-10-13T02:33:34;15.90;99.90
7814;DHT22;3952;48.364;16.022;2023-10-13T02:36:03;15.90;99.90
7814;DHT22;3952;48.364;16.022;2023-10-13T02:38:31;15.90;99.90
7814;DHT22;3952;48.364;16.022;2023-10-13T02:41:01;16.00;99.90
7814;DHT22;3952;48.364;16.022;2023-10-13T02:43:37;17.00;99.90
7814;DHT22;3952;48.364;16.022;2023-10-13T02:46:03;16.00;99.90
7814;DHT22;3952;48.364;16.022;2023-10-13T02:48:31;16.00;99.90
7814;DHT22;3952;48.364;16.022;2023-10-13T02:51:06;16.00;99.90
7814;DHT22;3952;48.364;16.022;2023-10-13T02:53:41;16.00;99.90
7814;DHT22;3952;48.364;16.022;2023-10-13T02:56:08;16.00;99.90
7814;DHT22;3952;48.364;16.022;2023-10-13T02:58:40;16.00;99.90
7814;DHT22;3952;48.364;16.022;2023-10-13T03:01:11;16.10;99.90
7814;DHT22;3952;48.364;16.022;2023-10-13T03:03:45;16.10;99.90
7814;DHT22;3952;48.364;16.022;2023-10-13T03:06:16;16.10;99.90
7814;DHT22;3952;48.364;16.022;2023-10-13T03:08:44;16.20;99.90
7814;DHT22;3952;48.364;16.022;2023-10-13T03:11:12;16.20;99.90
7814;DHT22;3952;48.364;16.022;2023-10-13T03:13:41;16.20;99.90
7814;DHT22;3952;48.364;16.022;2023-10-13T03:16:12;16.20;99.90
7814;DHT22;3952;48.364;16.022;2023-10-13T03:18:42;16.20;99.90
7814;DHT22;3952;48.364;16.022;2023-10-13T03:21:17;16.20;99.90
7814;DHT22;3952;48.364;16.022;2023-10-13T03:23:55;16.20;99.90
7814;DHT22;3952;48.364;16.022;2023-10-13T03:26:22;16.20;99.90
7814;DHT22;3952;48.364;16.022;2023-10-13T03:28:51;16.20;99.90
7814;DHT22;3952;48.364;16.022;2023-10-13T03:31:19;16.20;99.90
7814;DHT22;3952;48.364;16.022;2023-10-13T03:33:52;16.20;99.90
7814;DHT22;3952;48.364;16.022;2023-10-13T03:36:26;16.20;99.90
7814;DHT22;3952;48.364;16.022;2023-10-13T03:39:11;16.20;99.90
7814;DHT22;3952;48.364;16.022;2023-10-13T03:41:39;16.10;99.90
7814;DHT22;3952;48.364;16.022;2023-10-13T03:44:08;16.10;99.90
7814;DHT22;3952;48.364;16.022;2023-10-13T03:46:40;16.10;99.90
7814;DHT22;3952;48.364;16.022;2023-10-13T03:49:08;16.10;99.90
7814;DHT22;3952;48.364;16.022;2023-10-13T03:51:39;16.20;99.90
7814;DHT22;3952;48.364;16.022;2023-10-13T03:54:06;16.10;99.90
7814;DHT22;3952;48.364;16.022;2023-10-13T03:56:34;16.10;99.90
7814;DHT22;3952;48.364;16.022;2023-10-13T03:59:09;16.10;99.90
7814;DHT22;3952;48.364;16.022;2023-10-13T04:01:43;16.10;99.90
7814;DHT22;3952;48.364;16.022;2023-10-13T04:04:14;16.10;99.90
7814;DHT22;3952;48.364;16.022;2023-10-13T04:06:44;16.10;99.90
7814;DHT22;3952;48.364;16.022;2023-10-13T04:09:39;16.10;99.90
7814;DHT22;3952;48.364;16.022;2023-10-13T04:12:36;16.10;99.90
7814;DHT22;3952;48.364;16.022;2023-10-13T04:15:22;16.10;99.90
7814;DHT22;3952;48.364;16.022;2023-10-13T04:18:00;16.10;99.90
7814;DHT22;3952;48.364;16.022;2023-10-13T04:20:40;16.10;99.90
7814;DHT22;3952;48.364;16.022;2023-10-13T04:23:12;16.10;99.90
7814;DHT22;3952;48.364;16.022;2023-10-13T04:25:45;16.10;99.90
7814;DHT22;3952;48.364;16.022;2023-10-13T04:28:31;16.10;99.90
7814;DHT22;3952;48.364;16.022;2023-10-13T04:31:04;16.10;99.90
7814;DHT22;3952;48.364;16.022;2023-10-13T04:33:50;16.20;99.90
7814;DHT22;3952;48.364;16.022;2023-10-13T04:36:27;16.20;99.90
7814;DHT22;3952;48.364;16.022;2023-10-13T04:39:11;16.20;99.90
7814;DHT22;3952;48.364;16.022;2023-10-13T04:41:42;16.20;99.90
7814;DHT22;3952;48.364;16.022;2023-10-13T04:44:24;16.20;99.90
7814;DHT22;3952;48.364;16.022;2023-10-13T04:47:06;16.20;99.90
7814;DHT22;3952;48.364;16.022;2023-10-13T04:49:45;16.20;99.90
7814;DHT22;3952;48.364;16.022;2023-10-13T04:52:19;16.30;99.90
7814;DHT22;3952;48.364;16.022;2023-10-13T04:55:05;16.30;99.90
7814;DHT22;3952;48.364;16.022;2023-10-13T04:58:02;16.30;99.90
7814;DHT22;3952;48.364;16.022;2023-10-13T05:00:53;16.30;99.90
7814;DHT22;3952;48.364;16.022;2023-10-13T05:03:38;16.30;99.90
7814;DHT22;3952;48.364;16.022;2023-10-13T05:06:39;16.30;99.90
7814;DHT22;3952;48.364;16.022;2023-10-13T05:09:24;16.30;99.90
7814;DHT22;3952;48.364;16.022;2023-10-13T05:12:08;16.30;99.90
7814;DHT22;3952;48.364;16.022;2023-10-13T05:14:49;16.30;99.90
7814;DHT22;3952;48.364;16.022;2023-10-13T05:17:34;16.30;99.90
7814;DHT22;3952;48.364;16.022;2023-10-13T05:20:20;14.60;99.90
7814;DHT22;3952;48.364;16.022;2023-10-13T05:23:04;16.30;99.90
7814;DHT22;3952;48.364;16.022;2023-10-13T05:25:49;16.30;99.90
7814;DHT22;3952;48.364;16.022;2023-10-13T05:28:33;16.20;99.90
7814;DHT22;3952;48.364;16.022;2023-10-13T05:31:18;16.30;99.90
7814;DHT22;3952;48.364;16.022;2023-10-13T05:34:03;16.30;99.90
7814;DHT22;3952;48.364;16.022;2023-10-13T05:36:49;16.30;99.90
7814;DHT22;3952;48.364;16.022;2023-10-13T05:39:34;16.30;99.90
7814;DHT22;3952;48.364;16.022;2023-10-13T05:42:18;16.30;99.90
7814;DHT22;3952;48.364;16.022;2023-10-13T05:45:03;16.30;99.90
7814;DHT22;3952;48.364;16.022;2023-10-13T05:48:02;16.30;99.90
7814;DHT22;3952;48.364;16.022;2023-10-13T05:50:39;16.30;99.90
7814;DHT22;3952;48.364;16.022;2023-10-13T05:53:46;16.30;99.90
7814;DHT22;3952;48.364;16.022;2023-10-13T05:56:42;16.30;99.90
7814;DHT22;3952;48.364;16.022;2023-10-13T05:59:35;16.30;99.90
7814;DHT22;3952;48.364;16.022;2023-10-13T06:02:21;16.30;99.90
7814;DHT22;3952;48.364;16.022;2023-10-13T06:05:07;16.30;99.90
7814;DHT22;3952;48.364;16.022;2023-10-13T06:07:52;16.30;99.90
7814;DHT22;3952;48.364;16.022;2023-10-13T06:10:39;16.40;99.90
7814;DHT22;3952;48.364;16.022;2023-10-13T06:13:24;16.40;99.90
7814;DHT22;3952;48.364;16.022;2023-10-13T06:16:10;16.40;99.90
7814;DHT22;3952;48.364;16.022;2023-10-13T06:18:55;16.40;99.90
7814;DHT22;3952;48.364;16.022;2023-10-13T06:21:40;16.40;99.90
7814;DHT22;3952;48.364;16.022;2023-10-13T06:24:25;16.40;99.90
7814;DHT22;3952;48.364;16.022;2023-10-13T06:27:11;16.50;99.90
7814;DHT22;3952;48.364;16.022;2023-10-13T06:29:55;16.50;99.90
7814;DHT22;3952;48.364;16.022;2023-10-13T06:32:23;16.50;99.90
7814;DHT22;3952;48.364;16.022;2023-10-13T06:34:52;16.50;99.90
7814;DHT22;3952;48.364;16.022;2023-10-13T06:37:24;16.60;99.90
7814;DHT22;3952;48.364;16.022;2023-10-13T06:39:52;16.70;99.90
7814;DHT22;3952;48.364;16.022;2023-10-13T06:42:23;16.70;99.90
7814;DHT22;3952;48.364;16.022;2023-10-13T06:44:53;16.80;99.90
7814;DHT22;3952;48.364;16.022;2023-10-13T06:47:21;16.80;99.90
7814;DHT22;3952;48.364;16.022;2023-10-13T06:49:50;16.90;99.90
7814;DHT22;3952;48.364;16.022;2023-10-13T06:52:17;17.00;99.90
7814;DHT22;3952;48.364;16.022;2023-10-13T06:54:45;17.10;99.90
7814;DHT22;3952;48.364;16.022;2023-10-13T06:57:13;17.40;99.90
7814;DHT22;3952;48.364;16.022;2023-10-13T06:59:47;19.10;99.90
7814;DHT22;3952;48.364;16.022;2023-10-13T07:02:15;20.00;99.90
7814;DHT22;3952;48.364;16.022;2023-10-13T07:04:48;20.40;99.90
7814;DHT22;3952;48.364;16.022;2023-10-13T07:07:22;20.80;99.90
7814;DHT22;3952;48.364;16.022;2023-10-13T07:09:49;22.70;99.90
7814;DHT22;3952;48.364;16.022;2023-10-13T07:12:21;24.60;99.90
7814;DHT22;3952;48.364;16.022;2023-10-13T07:14:54;26.40;99.90
7814;DHT22;3952;48.364;16.022;2023-10-13T07:17:28;27.30;99.90
7814;DHT22;3952;48.364;16.022;2023-10-13T07:19:59;28.40;99.90
7814;DHT22;3952;48.364;16.022;2023-10-13T07:22:40;29.30;99.90
7814;DHT22;3952;48.364;16.022;2023-10-13T07:25:11;30.00;99.90
7814;DHT22;3952;48.364;16.022;2023-10-13T07:27:49;30.80;99.90
7814;DHT22;3952;48.364;16.022;2023-10-13T07:30:19;31.70;98.10
7814;DHT22;3952;48.364;16.022;2023-10-13T07:32:52;32.10;96.80
7814;DHT22;3952;48.364;16.022;2023-10-13T07:35:21;32.60;94.40
7814;DHT22;3952;48.364;16.022;2023-10-13T07:37:50;31.40;93.80
7814;DHT22;3952;48.364;16.022;2023-10-13T07:40:20;31.30;94.40
7814;DHT22;3952;48.364;16.022;2023-10-13T07:43:05;32.00;93.40
7814;DHT22;3952;48.364;16.022;2023-10-13T07:45:38;32.80;92.10
7814;DHT22;3952;48.364;16.022;2023-10-13T07:48:07;31.60;91.60
7814;DHT22;3952;48.364;16.022;2023-10-13T07:50:38;31.10;92.80
7814;DHT22;3952;48.364;16.022;2023-10-13T07:53:06;31.90;92.00
7814;DHT22;3952;48.364;16.022;2023-10-13T07:55:45;32.70;90.70
7814;DHT22;3952;48.364;16.022;2023-10-13T07:58:14;33.80;88.90
7814;DHT22;3952;48.364;16.022;2023-10-13T08:00:42;34.30;86.40
7814;DHT22;3952;48.364;16.022;2023-10-13T08:03:20;34.50;83.20
7814;DHT22;3952;48.364;16.022;2023-10-13T08:06:09;34.00;85.00
7814;DHT22;3952;48.364;16.022;2023-10-13T08:08:46;34.40;82.90
7814;DHT22;3952;48.364;16.022;2023-10-13T08:11:17;34.40;81.00
7814;DHT22;3952;48.364;16.022;2023-10-13T08:13:53;34.00;81.00
7814;DHT22;3952;48.364;16.022;2023-10-13T08:16:23;33.80;80.60
7814;DHT22;3952;48.364;16.022;2023-10-13T08:18:55;34.00;78.30
7814;DHT22;3952;48.364;16.022;2023-10-13T08:21:27;33.60;78.30
7814;DHT22;3952;48.364;16.022;2023-10-13T08:23:57;33.70;78.20
7814;DHT22;3952;48.364;16.022;2023-10-13T08:26:28;33.60;78.60
7814;DHT22;3952;48.364;16.022;2023-10-13T08:29:24;33.10;79.10
7814;DHT22;3952;48.364;16.022;2023-10-13T08:32:10;31.90;81.40
7814;DHT22;3952;48.364;16.022;2023-10-13T08:35:02;30.80;83.90
7814;DHT22;3952;48.364;16.022;2023-10-13T08:37:49;30.60;84.90
7814;DHT22;3952;48.364;16.022;2023-10-13T08:40:43;30.90;83.60
7814;DHT22;3952;48.364;16.022;2023-10-13T08:43:32;30.40;85.60
7814;DHT22;3952;48.364;16.022;2023-10-13T08:46:09;29.70;86.90
7814;DHT22;3952;48.364;16.022;2023-10-13T08:48:53;29.40;89.60
7814;DHT22;3952;48.364;16.022;2023-10-13T08:51:33;29.40;90.00
7814;DHT22;3952;48.364;16.022;2023-10-13T08:54:13;29.40;89.80
7814;DHT22;3952;48.364;16.022;2023-10-13T08:56:55;29.10;87.70
7814;DHT22;3952;48.364;16.022;2023-10-13T08:59:23;28.50;88.30
7814;DHT22;3952;48.364;16.022;2023-10-13T09:01:59;28.10;90.10
7814;DHT22;3952;48.364;16.022;2023-10-13T09:04:43;28.30;89.70
7814;DHT22;3952;48.364;16.022;2023-10-13T09:07:13;28.90;88.70
7814;DHT22;3952;48.364;16.022;2023-10-13T09:09:48;29.60;88.10
7814;DHT22;3952;48.364;16.022;2023-10-13T09:12:27;30.00;84.90
7814;DHT22;3952;48.364;16.022;2023-10-13T09:15:07;30.10;82.40
7814;DHT22;3952;48.364;16.022;2023-10-13T09:17:46;30.00;83.20
7814;DHT22;3952;48.364;16.022;2023-10-13T09:20:28;29.90;83.00
7814;DHT22;3952;48.364;16.022;2023-10-13T09:23:09;29.70;82.20
7814;DHT22;3952;48.364;16.022;2023-10-13T09:25:36;29.30;82.70
7814;DHT22;3952;48.364;16.022;2023-10-13T09:28:10;29.00;82.80
7814;DHT22;3952;48.364;16.022;2023-10-13T09:30:44;29.00;82.50
7814;DHT22;3952;48.364;16.022;2023-10-13T09:33:10;29.10;83.60
7814;DHT22;3952;48.364;16.022;2023-10-13T09:35:43;29.20;83.80
7814;DHT22;3952;48.364;16.022;2023-10-13T09:38:15;29.20;82.70
7814;DHT22;3952;48.364;16.022;2023-10-13T09:40:43;29.00;82.10
7814;DHT22;3952;48.364;16.022;2023-10-13T09:43:16;28.90;84.50
7814;DHT22;3952;48.364;16.022;2023-10-13T09:45:46;28.80;85.50
7814;DHT22;3952;48.364;16.022;2023-10-13T09:48:31;28.80;83.90
7814;DHT22;3952;48.364;16.022;2023-10-13T09:51:02;28.70;82.90
7814;DHT22;3952;48.364;16.022;2023-10-13T09:53:31;28.60;84.40
7814;DHT22;3952;48.364;16.022;2023-10-13T09:56:03;28.60;81.70
7814;DHT22;3952;48.364;16.022;2023-10-13T09:58:46;28.50;84.10
7814;DHT22;3952;48.364;16.022;2023-10-13T10:01:19;28.40;84.70
7814;DHT22;3952;48.364;16.022;2023-10-13T10:04:06;28.40;84.30
7814;DHT22;3952;48.364;16.022;2023-10-13T10:06:37;28.40;85.80
7814;DHT22;3952;48.364;16.022;2023-10-13T10:09:11;28.50;85.10
7814;DHT22;3952;48.364;16.022;2023-10-13T10:12:00;28.40;84.60
7814;DHT22;3952;48.364;16.022;2023-10-13T10:14:42;28.40;86.00
7814;DHT22;3952;48.364;16.022;2023-10-13T10:17:14;28.40;87.80
7814;DHT22;3952;48.364;16.022;2023-10-13T10:19:48;28.50;88.20
7814;DHT22;3952;48.364;16.022;2023-10-13T10:22:27;28.40;82.50
7814;DHT22;3952;48.364;16.022;2023-10-13T10:24:57;28.50;83.70
7814;DHT22;3952;48.364;16.022;2023-10-13T10:27:26;28.40;78.90
7814;DHT22;3952;48.364;16.022;2023-10-13T10:29:55;28.50;80.70
7814;DHT22;3952;48.364;16.022;2023-10-13T10:32:32;28.60;82.70
7814;DHT22;3952;48.364;16.022;2023-10-13T10:35:08;28.70;83.00
7814;DHT22;3952;48.364;16.022;2023-10-13T10:37:41;28.70;80.10
7814;DHT22;3952;48.364;16.022;2023-10-13T10:40:14;28.70;80.90
7814;DHT22;3952;48.364;16.022;2023-10-13T10:42:59;28.70;81.20
7814;DHT22;3952;48.364;16.022;2023-10-13T10:45:27;28.80;80.20
7814;DHT22;3952;48.364;16.022;2023-10-13T10:47:58;28.90;78.20
7814;DHT22;3952;48.364;16.022;2023-10-13T10:50:27;28.90;81.00
7814;DHT22;3952;48.364;16.022;2023-10-13T10:53:04;28.80;78.90
7814;DHT22;3952;48.364;16.022;2023-10-13T10:55:35;28.70;79.40
7814;DHT22;3952;48.364;16.022;2023-10-13T10:58:02;28.60;80.60
7814;DHT22;3952;48.364;16.022;2023-10-13T11:00:32;28.50;79.10
7814;DHT22;3952;48.364;16.022;2023-10-13T11:03:12;28.50;78.60
7814;DHT22;3952;48.364;16.022;2023-10-13T11:05:44;28.40;78.00
7814;DHT22;3952;48.364;16.022;2023-10-13T11:08:22;28.40;79.60
7814;DHT22;3952;48.364;16.022;2023-10-13T11:10:57;28.30;77.90
7814;DHT22;3952;48.364;16.022;2023-10-13T11:13:26;28.20;77.40
7814;DHT22;3952;48.364;16.022;2023-10-13T11:15:57;28.10;79.40
7814;DHT22;3952;48.364;16.022;2023-10-13T11:18:30;28.10;78.00
7814;DHT22;3952;48.364;16.022;2023-10-13T11:21:03;28.10;77.90
7814;DHT22;3952;48.364;16.022;2023-10-13T11:23:34;28.10;77.60
7814;DHT22;3952;48.364;16.022;2023-10-13T11:26:02;28.00;76.00
7814;DHT22;3952;48.364;16.022;2023-10-13T11:28:31;28.00;76.90
7814;DHT22;3952;48.364;16.022;2023-10-13T11:31:00;28.00;77.60
7814;DHT22;3952;48.364;16.022;2023-10-13T11:33:42;28.00;76.10
7814;DHT22;3952;48.364;16.022;2023-10-13T11:36:12;28.00;79.00
7814;DHT22;3952;48.364;16.022;2023-10-13T11:38:44;28.00;79.20
7814;DHT22;3952;48.364;16.022;2023-10-13T11:41:15;28.00;76.40
7814;DHT22;3952;48.364;16.022;2023-10-13T11:43:46;28.00;77.10
7814;DHT22;3952;48.364;16.022;2023-10-13T11:46:31;28.10;76.90
7814;DHT22;3952;48.364;16.022;2023-10-13T11:49:15;28.00;75.00
7814;DHT22;3952;48.364;16.022;2023-10-13T11:51:57;28.00;79.40
7814;DHT22;3952;48.364;16.022;2023-10-13T11:54:36;28.00;81.80
7814;DHT22;3952;48.364;16.022;2023-10-13T11:57:07;28.10;79.00
7814;DHT22;3952;48.364;16.022;2023-10-13T11:59:35;28.10;78.20
7814;DHT22;3952;48.364;16.022;2023-10-13T12:02:11;28.10;73.60
7814;DHT22;3952;48.364;16.022;2023-10-13T12:04:55;28.10;76.30
7814;DHT22;3952;48.364;16.022;2023-10-13T12:07:25;28.00;77.70
7814;DHT22;3952;48.364;16.022;2023-10-13T12:10:19;28.00;77.00
7814;DHT22;3952;48.364;16.022;2023-10-13T12:13:14;27.90;76.50
7814;DHT22;3952;48.364;16.022;2023-10-13T12:15:43;27.90;76.20
7814;DHT22;3952;48.364;16.022;2023-10-13T12:18:18;27.90;77.90
7814;DHT22;3952;48.364;16.022;2023-10-13T12:20:48;27.90;78.10
7814;DHT22;3952;48.364;16.022;2023-10-13T12:23:15;27.90;78.90
7814;DHT22;3952;48.364;16.022;2023-10-13T12:25:44;27.90;78.00
7814;DHT22;3952;48.364;16.022;2023-10-13T12:28:23;27.90;79.40
7814;DHT22;3952;48.364;16.022;2023-10-13T12:30:53;27.80;77.00
7814;DHT22;3952;48.364;16.022;2023-10-13T12:33:23;27.80;77.10
7814;DHT22;3952;48.364;16.022;2023-10-13T12:35:56;27.80;75.40
7814;DHT22;3952;48.364;16.022;2023-10-13T12:38:56;27.80;76.50
7814;DHT22;3952;48.364;16.022;2023-10-13T12:41:42;27.80;77.30
7814;DHT22;3952;48.364;16.022;2023-10-13T12:44:27;27.80;75.80
7814;DHT22;3952;48.364;16.022;2023-10-13T12:47:11;27.80;78.50
7814;DHT22;3952;48.364;16.022;2023-10-13T12:49:56;27.80;76.90
7814;DHT22;3952;48.364;16.022;2023-10-13T12:52:33;27.70;73.60
7814;DHT22;3952;48.364;16.022;2023-10-13T12:55:00;27.70;74.80
7814;DHT22;3952;48.364;16.022;2023-10-13T12:57:37;26.70;74.30
7814;DHT22;3952;48.364;16.022;2023-10-13T13:00:13;27.80;78.10
7814;DHT22;3952;48.364;16.022;2023-10-13T13:02:47;27.80;77.00
7814;DHT22;3952;48.364;16.022;2023-10-13T13:05:17;27.80;73.60
7814;DHT22;3952;48.364;16.022;2023-10-13T13:07:48;27.90;76.60
7814;DHT22;3952;48.364;16.022;2023-10-13T13:10:20;27.90;73.90
7814;DHT22;3952;48.364;16.022;2023-10-13T13:12:56;27.90;74.80
7814;DHT22;3952;48.364;16.022;2023-10-13T13:15:24;27.90;76.90
7814;DHT22;3952;48.364;16.022;2023-10-13T13:17:51;27.90;77.20
7814;DHT22;3952;48.364;16.022;2023-10-13T13:20:18;28.00;75.40
7814;DHT22;3952;48.364;16.022;2023-10-13T13:22:54;28.00;75.30
7814;DHT22;3952;48.364;16.022;2023-10-13T13:25:21;28.00;76.70
7814;DHT22;3952;48.364;16.022;2023-10-13T13:27:52;27.90;78.60
7814;DHT22;3952;48.364;16.022;2023-10-13T13:30:21;27.90;74.70
7814;DHT22;3952;48.364;16.022;2023-10-13T13:32:48;27.90;77.10
7814;DHT22;3952;48.364;16.022;2023-10-13T13:35:16;27.90;74.30
7814;DHT22;3952;48.364;16.022;2023-10-13T13:37:44;27.80;74.00
7814;DHT22;3952;48.364;16.022;2023-10-13T13:40:12;27.80;76.60
7814;DHT22;3952;48.364;16.022;2023-10-13T13:42:47;27.70;77.90
7814;DHT22;3952;48.364;16.022;2023-10-13T13:45:15;27.60;75.40
7814;DHT22;3952;48.364;16.022;2023-10-13T13:47:49;27.60;76.30
7814;DHT22;3952;48.364;16.022;2023-10-13T13:50:20;27.50;78.80
7814;DHT22;3952;48.364;16.022;2023-10-13T13:52:51;27.50;77.70
7814;DHT22;3952;48.364;16.022;2023-10-13T13:55:22;27.50;77.10
7814;DHT22;3952;48.364;16.022;2023-10-13T13:57:49;27.50;75.50
7814;DHT22;3952;48.364;16.022;2023-10-13T14:00:17;27.40;77.30
7814;DHT22;3952;48.364;16.022;2023-10-13T14:02:50;27.40;77.00
7814;DHT22;3952;48.364;16.022;2023-10-13T14:05:18;27.30;77.80
7814;DHT22;3952;48.364;16.022;2023-10-13T14:07:45;27.30;80.20
7814;DHT22;3952;48.364;16.022;2023-10-13T14:10:17;27.30;77.30
7814;DHT22;3952;48.364;16.022;2023-10-13T14:13:00;27.30;75.50
7814;DHT22;3952;48.364;16.022;2023-10-13T14:15:33;27.20;76.40
7814;DHT22;3952;48.364;16.022;2023-10-13T14:18:08;27.20;76.90
7814;DHT22;3952;48.364;16.022;2023-10-13T14:20:41;27.00;77.80
7814;DHT22;3952;48.364;16.022;2023-10-13T14:23:08;27.00;77.20
7814;DHT22;3952;48.364;16.022;2023-10-13T14:25:38;26.90;78.30
7814;DHT22;3952;48.364;16.022;2023-10-13T14:28:10;26.80;81.20
7814;DHT22;3952;48.364;16.022;2023-10-13T14:30:43;26.80;77.90
7814;DHT22;3952;48.364;16.022;2023-10-13T14:33:13;26.80;77.30
7814;DHT22;3952;48.364;16.022;2023-10-13T14:35:40;26.70;79.10
7814;DHT22;3952;48.364;16.022;2023-10-13T14:38:12;26.70;79.90
7814;DHT22;3952;48.364;16.022;2023-10-13T14:40:39;26.70;81.80
7814;DHT22;3952;48.364;16.022;2023-10-13T14:43:07;26.60;79.20
7814;DHT22;3952;48.364;16.022;2023-10-13T14:45:35;26.50;79.30
7814;DHT22;3952;48.364;16.022;2023-10-13T14:48:03;26.50;80.00
7814;DHT22;3952;48.364;16.022;2023-10-13T14:50:39;26.40;80.40
7814;DHT22;3952;48.364;16.022;2023-10-13T14:53:08;26.40;80.50
7814;DHT22;3952;48.364;16.022;2023-10-13T14:55:36;26.40;82.90
7814;DHT22;3952;48.364;16.022;2023-10-13T14:58:05;26.30;83.00
7814;DHT22;3952;48.364;16.022;2023-10-13T15:00:34;26.30;83.60
7814;DHT22;3952;48.364;16.022;2023-10-13T15:03:02;26.20;83.90
7814;DHT22;3952;48.364;16.022;2023-10-13T15:05:32;26.20;85.00
7814;DHT22;3952;48.364;16.022;2023-10-13T15:08:03;26.10;86.00
7814;DHT22;3952;48.364;16.022;2023-10-13T15:10:32;26.00;87.00
7814;DHT22;3952;48.364;16.022;2023-10-13T15:13:02;25.90;87.50
7814;DHT22;3952;48.364;16.022;2023-10-13T15:15:31;25.80;90.70
7814;DHT22;3952;48.364;16.022;2023-10-13T15:17:59;25.70;84.50
7814;DHT22;3952;48.364;16.022;2023-10-13T15:20:26;25.70;82.50
7814;DHT22;3952;48.364;16.022;2023-10-13T15:22:54;25.60;86.80
7814;DHT22;3952;48.364;16.022;2023-10-13T15:25:27;25.50;89.30
7814;DHT22;3952;48.364;16.022;2023-10-13T15:27:58;25.30;88.10
7814;DHT22;3952;48.364;16.022;2023-10-13T15:30:28;25.20;89.00
7814;DHT22;3952;48.364;16.022;2023-10-13T15:33:10;25.00;91.00
7814;DHT22;3952;48.364;16.022;2023-10-13T15:35:39;24.80;92.40
7814;DHT22;3952;48.364;16.022;2023-10-13T15:38:09;24.60;91.30
7814;DHT22;3952;48.364;16.022;2023-10-13T15:40:42;24.50;92.90
7814;DHT22;3952;48.364;16.022;2023-10-13T15:43:09;24.40;91.90
7814;DHT22;3952;48.364;16.022;2023-10-13T15:45:36;24.30;93.20
7814;DHT22;3952;48.364;16.022;2023-10-13T15:48:08;24.20;93.80
7814;DHT22;3952;48.364;16.022;2023-10-13T15:50:38;24.10;94.00
7814;DHT22;3952;48.364;16.022;2023-10-13T15:53:06;23.90;94.50
7814;DHT22;3952;48.364;16.022;2023-10-13T15:55:38;23.80;95.50
7814;DHT22;3952;48.364;16.022;2023-10-13T15:58:07;23.50;95.80
7814;DHT22;3952;48.364;16.022;2023-10-13T16:00:35;23.30;96.20
7814;DHT22;3952;48.364;16.022;2023-10-13T16:03:04;23.00;97.40
7814;DHT22;3952;48.364;16.022;2023-10-13T16:05:37;22.80;97.60
7814;DHT22;3952;48.364;16.022;2023-10-13T16:08:06;22.70;96.40
7814;DHT22;3952;48.364;16.022;2023-10-13T16:10:38;22.80;97.00
7814;DHT22;3952;48.364;16.022;2023-10-13T16:13:06;22.70;97.10
7814;DHT22;3952;48.364;16.022;2023-10-13T16:15:41;22.70;97.50
7814;DHT22;3952;48.364;16.022;2023-10-13T16:18:09;22.70;97.20
7814;DHT22;3952;48.364;16.022;2023-10-13T16:20:36;22.60;98.10
7814;DHT22;3952;48.364;16.022;2023-10-13T16:23:03;22.40;98.20
7814;DHT22;3952;48.364;16.022;2023-10-13T16:25:32;22.30;98.70
7814;DHT22;3952;48.364;16.022;2023-10-13T16:27:59;22.20;99.20
7814;DHT22;3952;48.364;16.022;2023-10-13T16:30:28;22.10;99.70